Terminal Aerodrome Forecast
Issued by NWS

Home | Current Version | Previous Version | Text Only | Print | Product List | Glossary On
Versions: 1 2 3 4 5 6 7 8 9 10 11 12 13 14 15 16
000
FTAK31 PAJN 252320
TAFAJN
TAF
PAJN 252320Z 2600/2624 24006KT P6SM SCT120 OVC250
     FM260600 11004KT P6SM SCT050 OVC120
     FM261200 11007KT P6SM -RA SCT030 OVC050
     FM261800 12012KT 6SM -RA BR BKN020 OVC030=

USA.gov is the U.S. government's official web portal to all federal, state and local government web resources and services.